createdAt,value
2022-08-20T00:04:08.314Z,21.00
2022-08-20T00:09:21.369Z,20.40
2022-08-20T00:14:30.192Z,21.30
2022-08-20T00:19:38.417Z,20.40
2022-08-20T00:24:47.199Z,20.40
2022-08-20T00:29:54.582Z,20.10
2022-08-20T00:35:19.588Z,20.20
2022-08-20T00:40:27.288Z,20.20
2022-08-20T00:45:39.413Z,19.50
2022-08-20T00:51:04.135Z,19.90
2022-08-20T00:56:35.002Z,20.00
2022-08-20T01:01:54.859Z,20.20
2022-08-20T01:07:01.692Z,20.20
2022-08-20T01:12:13.743Z,20.10
2022-08-20T01:17:24.987Z,20.10
2022-08-20T01:22:51.515Z,20.70
2022-08-20T01:27:59.637Z,20.60
2022-08-20T01:33:05.927Z,19.70
2022-08-20T01:38:09.767Z,20.10
2022-08-20T01:43:24.292Z,19.70
2022-08-20T01:48:30.787Z,19.70
2022-08-20T01:53:38.185Z,20.10
2022-08-20T01:58:46.423Z,19.60
2022-08-20T02:04:02.622Z,19.20
2022-08-20T02:09:06.823Z,19.70
2022-08-20T02:14:12.816Z,19.60
2022-08-20T02:19:17.946Z,19.50
2022-08-20T02:24:23.774Z,19.50
2022-08-20T02:29:28.802Z,19.40
2022-08-20T02:34:42.281Z,19.60
2022-08-20T02:39:46.718Z,19.70
2022-08-20T02:44:58.994Z,19.60
2022-08-20T02:50:03.898Z,19.50
2022-08-20T02:55:27.274Z,20.00
2022-08-20T03:00:38.449Z,19.40
2022-08-20T03:05:43.728Z,19.30
2022-08-20T03:10:50.793Z,19.20
2022-08-20T03:15:59.911Z,19.10
2022-08-20T03:21:04.071Z,19.20
2022-08-20T03:26:12.039Z,20.00
2022-08-20T03:31:18.698Z,19.00
2022-08-20T03:36:27.893Z,19.60
2022-08-20T03:41:33.798Z,19.70
2022-08-20T03:46:44.775Z,18.90
2022-08-20T03:51:57.801Z,19.60
2022-08-20T03:57:12.951Z,18.80
2022-08-20T04:02:27.964Z,18.90
2022-08-20T04:07:33.825Z,18.90
2022-08-20T04:12:48.692Z,19.30
2022-08-20T04:18:13.007Z,19.60
2022-08-20T04:23:17.214Z,18.80
2022-08-20T04:28:27.000Z,18.80
2022-08-20T04:33:45.533Z,18.70
2022-08-20T04:38:50.918Z,18.80
2022-08-20T04:43:57.233Z,18.80
2022-08-20T04:49:06.327Z,19.10
2022-08-20T04:54:09.748Z,18.70
2022-08-20T04:59:22.854Z,19.20
2022-08-20T05:04:27.916Z,20.00
2022-08-20T05:09:33.016Z,19.70
2022-08-20T05:14:50.402Z,19.00
2022-08-20T05:20:06.306Z,19.30
2022-08-20T05:25:11.486Z,19.10
2022-08-20T05:30:19.040Z,19.10
2022-08-20T05:35:27.984Z,19.20
2022-08-20T05:40:32.591Z,19.30
2022-08-20T05:45:40.606Z,19.30
2022-08-20T05:50:47.117Z,19.40
2022-08-20T05:55:51.492Z,19.40
2022-08-20T06:00:59.736Z,19.20
2022-08-20T06:06:18.034Z,19.10
2022-08-20T06:11:37.206Z,19.30
2022-08-20T06:16:57.394Z,19.40
2022-08-20T06:22:17.683Z,19.70
2022-08-20T06:27:24.714Z,20.80
2022-08-20T06:32:32.619Z,20.30
2022-08-20T06:37:41.530Z,19.80
2022-08-20T06:42:49.060Z,20.00
2022-08-20T06:47:55.502Z,19.90
2022-08-20T06:53:03.222Z,19.30
2022-08-20T06:58:26.774Z,19.20
2022-08-20T07:03:39.126Z,20.00
2022-08-20T07:08:45.411Z,20.50
2022-08-20T07:13:49.740Z,20.60
2022-08-20T07:18:53.578Z,21.10
2022-08-20T07:24:01.646Z,21.50
2022-08-20T07:29:07.042Z,22.10
2022-08-20T07:34:11.662Z,21.90
2022-08-20T07:39:18.203Z,22.40
2022-08-20T07:44:30.885Z,21.90
2022-08-20T07:49:40.750Z,21.00
2022-08-20T07:54:46.289Z,21.10
2022-08-20T07:59:50.851Z,20.70
2022-08-20T08:04:55.069Z,20.10
2022-08-20T08:10:03.351Z,19.60
2022-08-20T08:15:08.553Z,20.30
2022-08-20T08:20:23.014Z,20.80
2022-08-20T08:25:33.020Z,21.50
2022-08-20T08:30:38.342Z,22.50
2022-08-20T08:35:46.165Z,21.30
2022-08-20T08:40:59.819Z,21.90
2022-08-20T08:46:14.165Z,22.50
2022-08-20T08:51:22.214Z,23.20
2022-08-20T08:56:33.317Z,23.10
2022-08-20T09:01:55.658Z,23.10
2022-08-20T09:07:10.740Z,23.90
2022-08-20T09:12:31.284Z,24.30
2022-08-20T09:17:36.272Z,24.20
2022-08-20T09:22:39.919Z,23.80
2022-08-20T09:27:48.455Z,24.30
2022-08-20T09:33:09.455Z,24.30
2022-08-20T09:38:13.269Z,24.80
2022-08-20T09:44:01.686Z,24.70
2022-08-20T09:49:25.960Z,25.30
2022-08-20T09:54:46.588Z,26.40
2022-08-20T10:00:03.233Z,25.60
2022-08-20T10:05:18.499Z,24.90
2022-08-20T10:10:36.596Z,26.20
2022-08-20T10:15:52.152Z,25.80
2022-08-20T10:20:57.265Z,26.00
2022-08-20T10:26:05.787Z,26.10
2022-08-20T10:31:40.391Z,25.30
2022-08-20T10:37:00.524Z,25.50
2022-08-20T10:42:07.853Z,26.80
2022-08-20T10:47:21.816Z,25.20
2022-08-20T10:58:11.521Z,27.50
2022-08-20T11:03:35.597Z,27.00
2022-08-20T11:08:47.873Z,25.70
2022-08-20T11:13:58.483Z,26.60
2022-08-20T11:19:11.825Z,28.20
2022-08-20T11:24:21.409Z,26.60
2022-08-20T11:29:56.071Z,28.00
2022-08-20T11:35:40.603Z,27.80
2022-08-20T11:40:50.464Z,28.70
2022-08-20T11:46:00.156Z,28.30
2022-08-20T11:51:34.690Z,26.70
2022-08-20T12:02:12.513Z,28.40
2022-08-20T12:07:39.192Z,27.50
2022-08-20T12:12:45.106Z,27.80
2022-08-20T12:18:05.413Z,28.90
2022-08-20T12:23:16.681Z,27.70
2022-08-20T12:29:20.032Z,28.90
2022-08-20T12:34:29.216Z,29.80
2022-08-20T12:39:35.717Z,30.80
2022-08-20T12:44:43.411Z,29.40
2022-08-20T12:50:17.824Z,30.10
2022-08-20T12:55:49.257Z,30.60
2022-08-20T13:00:57.783Z,30.90
2022-08-20T13:06:09.208Z,31.40
2022-08-20T13:11:18.376Z,31.40
2022-08-20T13:16:26.799Z,29.30
2022-08-20T13:21:30.834Z,29.50
2022-08-20T13:26:39.775Z,30.20
2022-08-20T13:31:49.831Z,30.20
2022-08-20T13:36:56.689Z,30.70
2022-08-20T13:42:05.712Z,31.40
2022-08-20T13:47:27.993Z,32.00
2022-08-20T13:52:32.176Z,31.20
2022-08-20T13:57:40.330Z,32.10
2022-08-20T14:02:48.034Z,32.70
2022-08-20T14:07:54.142Z,31.60
2022-08-20T14:13:03.552Z,31.20
2022-08-20T14:18:12.134Z,31.30
2022-08-20T14:23:17.045Z,31.50
2022-08-20T14:28:24.984Z,32.20
2022-08-20T14:33:30.500Z,32.60
2022-08-20T14:38:46.107Z,32.90
2022-08-20T14:44:20.759Z,32.80
2022-08-20T14:49:36.051Z,31.30
2022-08-20T14:54:47.470Z,31.60
2022-08-20T15:00:19.488Z,30.80
2022-08-20T15:10:46.517Z,31.40
2022-08-20T15:16:02.028Z,31.50
2022-08-20T15:21:10.133Z,31.70
2022-08-20T15:26:16.301Z,32.00
2022-08-20T15:31:35.974Z,32.40
2022-08-20T15:36:41.278Z,32.90
2022-08-20T15:41:53.023Z,31.70
2022-08-20T15:49:16.793Z,31.60
2022-08-20T16:00:40.036Z,33.00
2022-08-20T16:06:06.639Z,31.90
2022-08-20T16:11:30.480Z,31.80
2022-08-20T16:16:35.634Z,32.00
2022-08-20T16:21:47.237Z,32.40
2022-08-20T16:27:12.851Z,32.00
2022-08-20T16:33:19.254Z,32.00
2022-08-20T16:38:53.132Z,32.20
2022-08-20T16:44:21.478Z,32.10
2022-08-20T16:50:17.978Z,31.40
2022-08-20T16:55:21.837Z,30.90
2022-08-20T17:00:26.446Z,30.90
2022-08-20T17:05:31.709Z,30.20
2022-08-20T17:10:40.889Z,30.80
2022-08-20T17:15:46.962Z,31.40
2022-08-20T17:21:08.144Z,31.10
2022-08-20T17:26:20.990Z,29.80
2022-08-20T17:31:39.197Z,30.00
2022-08-20T17:36:51.939Z,29.10
2022-08-20T17:42:06.231Z,27.10
2022-08-20T17:47:14.066Z,26.30
2022-08-20T17:52:22.208Z,25.70
2022-08-20T17:57:28.499Z,24.70
2022-08-20T18:02:33.619Z,27.40
2022-08-20T18:07:42.133Z,25.90
2022-08-20T18:13:02.923Z,25.70
2022-08-20T18:18:20.827Z,25.10
2022-08-20T18:23:33.357Z,24.60
2022-08-20T18:28:42.581Z,24.10
2022-08-20T18:33:47.726Z,23.90
2022-08-20T18:39:02.194Z,23.50
2022-08-20T18:44:16.476Z,23.30
2022-08-20T18:49:29.119Z,22.10
2022-08-20T18:54:33.775Z,22.60
2022-08-20T18:59:47.927Z,22.60
2022-08-20T19:05:12.454Z,22.40
2022-08-20T19:10:41.551Z,22.20
2022-08-20T19:21:37.183Z,21.90
2022-08-20T19:26:56.502Z,21.60
2022-08-20T19:32:03.381Z,21.60
2022-08-20T19:37:35.157Z,20.80
2022-08-20T19:42:47.250Z,21.10
2022-08-20T19:47:58.909Z,21.10
2022-08-20T19:53:09.046Z,21.00
2022-08-20T19:58:16.886Z,20.90
2022-08-20T20:03:40.701Z,20.80
2022-08-20T20:08:54.242Z,20.60
2022-08-20T20:14:05.259Z,20.40
2022-08-20T20:19:29.364Z,20.10
2022-08-20T20:24:41.260Z,19.90
2022-08-20T20:29:44.966Z,19.70
2022-08-20T20:34:55.908Z,19.50
2022-08-20T20:40:03.067Z,19.40
2022-08-20T20:45:19.282Z,19.40
2022-08-20T20:50:45.779Z,19.50
2022-08-20T20:55:57.981Z,19.50
2022-08-20T21:01:02.041Z,19.40
2022-08-20T21:06:08.421Z,19.60
2022-08-20T21:11:18.902Z,19.80
2022-08-20T21:16:28.143Z,19.60
2022-08-20T21:21:34.608Z,19.60
2022-08-20T21:26:39.193Z,19.30
2022-08-20T21:31:49.035Z,18.80
2022-08-20T21:36:55.056Z,18.40
2022-08-20T21:42:03.040Z,18.30
2022-08-20T21:47:07.734Z,18.10
2022-08-20T21:52:17.366Z,17.90
2022-08-20T21:57:22.587Z,17.80
2022-08-20T22:02:29.353Z,17.70
2022-08-20T22:07:35.699Z,17.60
2022-08-20T22:12:39.607Z,17.50
2022-08-20T22:17:43.820Z,17.50
2022-08-20T22:22:49.155Z,17.40
2022-08-20T22:27:53.000Z,17.40
2022-08-20T22:32:57.836Z,17.10
2022-08-20T22:38:03.369Z,17.00
2022-08-20T22:43:07.456Z,16.90
2022-08-20T22:48:11.648Z,16.70
2022-08-20T22:53:16.800Z,16.70
2022-08-20T22:58:20.873Z,16.50
2022-08-20T23:03:39.458Z,16.60
2022-08-20T23:08:47.018Z,16.60
2022-08-20T23:13:50.850Z,16.40
2022-08-20T23:18:55.292Z,16.30
2022-08-20T23:23:59.995Z,16.20
2022-08-20T23:29:03.804Z,16.10
2022-08-20T23:34:07.500Z,16.20
2022-08-20T23:39:13.100Z,16.10
2022-08-20T23:44:26.458Z,16.10
2022-08-20T23:49:31.725Z,16.00
2022-08-20T23:54:37.392Z,16.10
2022-08-20T23:59:43.270Z,15.90
